sensor_id;sensor_type;location;lat;lon;timestamp;P1;durP1;ratioP1;P2;durP2;ratioP2
5549;SDS011;2798;42.716;23.256;2022-12-07T00:01:15;21.63;;;12.93;;
5549;SDS011;2798;42.716;23.256;2022-12-07T00:03:43;19.90;;;11.90;;
5549;SDS011;2798;42.716;23.256;2022-12-07T00:06:11;21.07;;;12.03;;
5549;SDS011;2798;42.716;23.256;2022-12-07T00:08:38;20.50;;;12.07;;
5549;SDS011;2798;42.716;23.256;2022-12-07T00:11:04;17.03;;;12.00;;
5549;SDS011;2798;42.716;23.256;2022-12-07T00:13:31;21.30;;;11.53;;
5549;SDS011;2798;42.716;23.256;2022-12-07T00:16:16;23.00;;;12.73;;
5549;SDS011;2798;42.716;23.256;2022-12-07T00:18:43;18.40;;;12.10;;
5549;SDS011;2798;42.716;23.256;2022-12-07T00:21:17;20.07;;;12.40;;
5549;SDS011;2798;42.716;23.256;2022-12-07T00:23:45;17.27;;;11.80;;
5549;SDS011;2798;42.716;23.256;2022-12-07T00:26:12;25.40;;;13.30;;
5549;SDS011;2798;42.716;23.256;2022-12-07T00:28:41;23.03;;;12.70;;
5549;SDS011;2798;42.716;23.256;2022-12-07T00:31:11;18.20;;;12.03;;
5549;SDS011;2798;42.716;23.256;2022-12-07T00:33:37;26.00;;;13.93;;
5549;SDS011;2798;42.716;23.256;2022-12-07T00:36:05;20.70;;;13.33;;
5549;SDS011;2798;42.716;23.256;2022-12-07T00:38:33;21.90;;;13.73;;
5549;SDS011;2798;42.716;23.256;2022-12-07T00:41:02;19.70;;;13.03;;
5549;SDS011;2798;42.716;23.256;2022-12-07T00:43:30;21.40;;;13.53;;
5549;SDS011;2798;42.716;23.256;2022-12-07T00:45:55;18.37;;;12.33;;
5549;SDS011;2798;42.716;23.256;2022-12-07T00:48:21;21.53;;;13.03;;
5549;SDS011;2798;42.716;23.256;2022-12-07T00:50:47;23.90;;;14.07;;
5549;SDS011;2798;42.716;23.256;2022-12-07T00:53:13;23.70;;;13.17;;
5549;SDS011;2798;42.716;23.256;2022-12-07T00:55:39;19.67;;;12.43;;
5549;SDS011;2798;42.716;23.256;2022-12-07T00:58:04;21.00;;;12.70;;
5549;SDS011;2798;42.716;23.256;2022-12-07T01:00:30;22.87;;;13.50;;
5549;SDS011;2798;42.716;23.256;2022-12-07T01:02:55;21.43;;;13.63;;
5549;SDS011;2798;42.716;23.256;2022-12-07T01:05:21;24.50;;;13.30;;
5549;SDS011;2798;42.716;23.256;2022-12-07T01:07:46;21.37;;;13.30;;
5549;SDS011;2798;42.716;23.256;2022-12-07T01:10:12;21.20;;;12.53;;
5549;SDS011;2798;42.716;23.256;2022-12-07T01:12:39;24.27;;;13.60;;
5549;SDS011;2798;42.716;23.256;2022-12-07T01:15:05;21.60;;;13.47;;
5549;SDS011;2798;42.716;23.256;2022-12-07T01:17:31;30.63;;;14.57;;
5549;SDS011;2798;42.716;23.256;2022-12-07T01:19:56;24.30;;;12.63;;
5549;SDS011;2798;42.716;23.256;2022-12-07T01:22:22;25.97;;;13.83;;
5549;SDS011;2798;42.716;23.256;2022-12-07T01:24:47;24.87;;;12.97;;
5549;SDS011;2798;42.716;23.256;2022-12-07T01:27:13;19.80;;;13.20;;
5549;SDS011;2798;42.716;23.256;2022-12-07T01:29:38;20.80;;;13.80;;
5549;SDS011;2798;42.716;23.256;2022-12-07T01:32:04;22.10;;;12.90;;
5549;SDS011;2798;42.716;23.256;2022-12-07T01:34:29;23.10;;;13.70;;
5549;SDS011;2798;42.716;23.256;2022-12-07T01:36:55;28.57;;;14.63;;
5549;SDS011;2798;42.716;23.256;2022-12-07T01:39:21;20.27;;;12.43;;
5549;SDS011;2798;42.716;23.256;2022-12-07T01:41:46;20.30;;;13.40;;
5549;SDS011;2798;42.716;23.256;2022-12-07T01:46:41;22.30;;;13.80;;
5549;SDS011;2798;42.716;23.256;2022-12-07T01:49:09;21.70;;;13.47;;
5549;SDS011;2798;42.716;23.256;2022-12-07T01:51:39;21.13;;;12.97;;
5549;SDS011;2798;42.716;23.256;2022-12-07T01:54:07;19.27;;;12.50;;
5549;SDS011;2798;42.716;23.256;2022-12-07T01:56:36;19.30;;;12.60;;
5549;SDS011;2798;42.716;23.256;2022-12-07T01:59:04;20.10;;;13.77;;
5549;SDS011;2798;42.716;23.256;2022-12-07T02:01:29;26.00;;;13.30;;
5549;SDS011;2798;42.716;23.256;2022-12-07T02:03:55;20.03;;;12.10;;
5549;SDS011;2798;42.716;23.256;2022-12-07T02:06:22;27.20;;;13.33;;
5549;SDS011;2798;42.716;23.256;2022-12-07T02:08:50;19.80;;;12.70;;
5549;SDS011;2798;42.716;23.256;2022-12-07T02:11:16;22.20;;;12.87;;
5549;SDS011;2798;42.716;23.256;2022-12-07T02:13:42;22.03;;;12.90;;
5549;SDS011;2798;42.716;23.256;2022-12-07T02:24:59;16.93;;;12.23;;
5549;SDS011;2798;42.716;23.256;2022-12-07T02:27:25;20.07;;;13.30;;
5549;SDS011;2798;42.716;23.256;2022-12-07T02:30:12;21.13;;;12.40;;
5549;SDS011;2798;42.716;23.256;2022-12-07T02:32:50;23.30;;;13.37;;
5549;SDS011;2798;42.716;23.256;2022-12-07T02:35:40;20.93;;;12.57;;
5549;SDS011;2798;42.716;23.256;2022-12-07T02:41:07;21.00;;;13.10;;
5549;SDS011;2798;42.716;23.256;2022-12-07T02:43:47;20.87;;;11.93;;
5549;SDS011;2798;42.716;23.256;2022-12-07T02:46:21;20.53;;;12.83;;
5549;SDS011;2798;42.716;23.256;2022-12-07T02:48:50;19.03;;;11.87;;
5549;SDS011;2798;42.716;23.256;2022-12-07T02:51:17;20.23;;;13.03;;
5549;SDS011;2798;42.716;23.256;2022-12-07T02:53:43;25.40;;;14.13;;
5549;SDS011;2798;42.716;23.256;2022-12-07T03:02:06;20.27;;;12.60;;
5549;SDS011;2798;42.716;23.256;2022-12-07T03:10:22;18.80;;;11.73;;
5549;SDS011;2798;42.716;23.256;2022-12-07T03:16:02;19.90;;;11.70;;
5549;SDS011;2798;42.716;23.256;2022-12-07T03:18:49;19.33;;;11.63;;
5549;SDS011;2798;42.716;23.256;2022-12-07T03:21:21;20.83;;;12.07;;
5549;SDS011;2798;42.716;23.256;2022-12-07T03:23:54;17.43;;;11.00;;
5549;SDS011;2798;42.716;23.256;2022-12-07T03:26:23;21.03;;;12.00;;
5549;SDS011;2798;42.716;23.256;2022-12-07T03:28:55;17.60;;;12.67;;
5549;SDS011;2798;42.716;23.256;2022-12-07T03:31:35;17.73;;;11.47;;
5549;SDS011;2798;42.716;23.256;2022-12-07T03:34:16;18.37;;;11.90;;
5549;SDS011;2798;42.716;23.256;2022-12-07T03:37:00;17.97;;;11.50;;
5549;SDS011;2798;42.716;23.256;2022-12-07T03:42:05;18.20;;;11.90;;
5549;SDS011;2798;42.716;23.256;2022-12-07T03:44:34;16.63;;;11.73;;
5549;SDS011;2798;42.716;23.256;2022-12-07T03:47:02;20.33;;;12.10;;
5549;SDS011;2798;42.716;23.256;2022-12-07T03:53:00;22.77;;;12.60;;
5549;SDS011;2798;42.716;23.256;2022-12-07T03:55:06;19.83;;;12.60;;
5549;SDS011;2798;42.716;23.256;2022-12-07T03:57:36;17.83;;;11.57;;
5549;SDS011;2798;42.716;23.256;2022-12-07T04:00:04;28.50;;;13.43;;
5549;SDS011;2798;42.716;23.256;2022-12-07T04:02:31;16.73;;;11.23;;
5549;SDS011;2798;42.716;23.256;2022-12-07T04:04:58;20.70;;;11.77;;
5549;SDS011;2798;42.716;23.256;2022-12-07T04:07:23;19.90;;;12.93;;
5549;SDS011;2798;42.716;23.256;2022-12-07T04:09:49;21.90;;;12.83;;
5549;SDS011;2798;42.716;23.256;2022-12-07T04:12:15;17.23;;;12.17;;
5549;SDS011;2798;42.716;23.256;2022-12-07T04:14:40;22.60;;;13.00;;
5549;SDS011;2798;42.716;23.256;2022-12-07T04:17:06;22.93;;;12.83;;
5549;SDS011;2798;42.716;23.256;2022-12-07T04:19:32;21.00;;;12.83;;
5549;SDS011;2798;42.716;23.256;2022-12-07T04:21:59;23.40;;;13.93;;
5549;SDS011;2798;42.716;23.256;2022-12-07T04:24:25;18.33;;;12.13;;
5549;SDS011;2798;42.716;23.256;2022-12-07T04:26:51;21.83;;;13.40;;
5549;SDS011;2798;42.716;23.256;2022-12-07T04:29:16;23.87;;;14.10;;
5549;SDS011;2798;42.716;23.256;2022-12-07T04:31:43;23.00;;;12.40;;
5549;SDS011;2798;42.716;23.256;2022-12-07T04:34:08;20.73;;;12.33;;
5549;SDS011;2798;42.716;23.256;2022-12-07T04:36:34;19.57;;;11.80;;
5549;SDS011;2798;42.716;23.256;2022-12-07T04:39:00;20.23;;;13.00;;
5549;SDS011;2798;42.716;23.256;2022-12-07T04:41:26;24.23;;;13.40;;
5549;SDS011;2798;42.716;23.256;2022-12-07T04:43:53;20.70;;;12.97;;
5549;SDS011;2798;42.716;23.256;2022-12-07T04:46:23;19.40;;;12.33;;
5549;SDS011;2798;42.716;23.256;2022-12-07T04:48:50;19.53;;;13.13;;
5549;SDS011;2798;42.716;23.256;2022-12-07T04:51:18;20.57;;;13.00;;
5549;SDS011;2798;42.716;23.256;2022-12-07T04:53:46;26.37;;;13.17;;
5549;SDS011;2798;42.716;23.256;2022-12-07T04:56:11;21.00;;;12.50;;
5549;SDS011;2798;42.716;23.256;2022-12-07T04:58:37;23.17;;;13.80;;
5549;SDS011;2798;42.716;23.256;2022-12-07T05:01:02;25.70;;;13.73;;
5549;SDS011;2798;42.716;23.256;2022-12-07T05:03:28;24.80;;;13.37;;
5549;SDS011;2798;42.716;23.256;2022-12-07T05:05:53;21.93;;;13.07;;
5549;SDS011;2798;42.716;23.256;2022-12-07T05:08:19;22.63;;;13.30;;
5549;SDS011;2798;42.716;23.256;2022-12-07T05:10:44;22.90;;;13.53;;
5549;SDS011;2798;42.716;23.256;2022-12-07T05:13:09;21.83;;;12.47;;
5549;SDS011;2798;42.716;23.256;2022-12-07T05:15:35;22.03;;;12.60;;
5549;SDS011;2798;42.716;23.256;2022-12-07T05:18:00;23.37;;;13.70;;
5549;SDS011;2798;42.716;23.256;2022-12-07T05:20:26;21.57;;;13.33;;
5549;SDS011;2798;42.716;23.256;2022-12-07T05:22:51;19.70;;;12.53;;
5549;SDS011;2798;42.716;23.256;2022-12-07T05:25:16;20.73;;;12.57;;
5549;SDS011;2798;42.716;23.256;2022-12-07T05:27:42;22.63;;;14.13;;
5549;SDS011;2798;42.716;23.256;2022-12-07T05:30:07;28.80;;;14.80;;
5549;SDS011;2798;42.716;23.256;2022-12-07T05:32:33;21.50;;;13.43;;
5549;SDS011;2798;42.716;23.256;2022-12-07T05:34:58;23.20;;;14.30;;
5549;SDS011;2798;42.716;23.256;2022-12-07T05:37:24;28.07;;;15.00;;
5549;SDS011;2798;42.716;23.256;2022-12-07T05:39:49;27.87;;;16.10;;
5549;SDS011;2798;42.716;23.256;2022-12-07T05:42:15;25.47;;;14.60;;
5549;SDS011;2798;42.716;23.256;2022-12-07T05:44:42;26.10;;;15.27;;
5549;SDS011;2798;42.716;23.256;2022-12-07T05:47:09;25.13;;;14.63;;
5549;SDS011;2798;42.716;23.256;2022-12-07T05:49:35;23.90;;;14.47;;
5549;SDS011;2798;42.716;23.256;2022-12-07T05:52:01;23.10;;;14.07;;
5549;SDS011;2798;42.716;23.256;2022-12-07T05:54:27;27.30;;;15.30;;
5549;SDS011;2798;42.716;23.256;2022-12-07T05:56:52;28.20;;;15.83;;
5549;SDS011;2798;42.716;23.256;2022-12-07T05:59:18;25.40;;;16.10;;
5549;SDS011;2798;42.716;23.256;2022-12-07T06:01:57;22.90;;;16.07;;
5549;SDS011;2798;42.716;23.256;2022-12-07T06:04:23;25.87;;;15.27;;
5549;SDS011;2798;42.716;23.256;2022-12-07T06:06:50;25.20;;;16.20;;
5549;SDS011;2798;42.716;23.256;2022-12-07T06:09:17;29.87;;;16.70;;
5549;SDS011;2798;42.716;23.256;2022-12-07T06:11:43;24.60;;;15.30;;
5549;SDS011;2798;42.716;23.256;2022-12-07T06:14:27;25.87;;;17.40;;
5549;SDS011;2798;42.716;23.256;2022-12-07T06:16:53;27.10;;;17.73;;
5549;SDS011;2798;42.716;23.256;2022-12-07T06:19:18;29.00;;;16.30;;
5549;SDS011;2798;42.716;23.256;2022-12-07T06:21:44;28.13;;;17.00;;
5549;SDS011;2798;42.716;23.256;2022-12-07T06:24:12;31.67;;;16.87;;
5549;SDS011;2798;42.716;23.256;2022-12-07T06:26:39;26.77;;;17.40;;
5549;SDS011;2798;42.716;23.256;2022-12-07T06:29:05;36.53;;;19.30;;
5549;SDS011;2798;42.716;23.256;2022-12-07T06:31:30;43.60;;;21.30;;
5549;SDS011;2798;42.716;23.256;2022-12-07T06:33:59;39.10;;;20.80;;
5549;SDS011;2798;42.716;23.256;2022-12-07T06:36:26;37.93;;;18.93;;
5549;SDS011;2798;42.716;23.256;2022-12-07T06:38:52;33.80;;;19.23;;
5549;SDS011;2798;42.716;23.256;2022-12-07T06:41:18;37.97;;;20.50;;
5549;SDS011;2798;42.716;23.256;2022-12-07T06:43:43;32.70;;;19.57;;
5549;SDS011;2798;42.716;23.256;2022-12-07T06:46:09;36.10;;;19.07;;
5549;SDS011;2798;42.716;23.256;2022-12-07T06:48:34;31.30;;;17.97;;
5549;SDS011;2798;42.716;23.256;2022-12-07T06:50:59;31.30;;;19.30;;
5549;SDS011;2798;42.716;23.256;2022-12-07T06:53:25;29.87;;;17.20;;
5549;SDS011;2798;42.716;23.256;2022-12-07T06:55:50;32.43;;;17.80;;
5549;SDS011;2798;42.716;23.256;2022-12-07T06:58:16;29.87;;;16.23;;
5549;SDS011;2798;42.716;23.256;2022-12-07T07:00:43;28.70;;;17.37;;
5549;SDS011;2798;42.716;23.256;2022-12-07T07:03:09;26.17;;;16.67;;
5549;SDS011;2798;42.716;23.256;2022-12-07T07:05:34;26.43;;;16.00;;
5549;SDS011;2798;42.716;23.256;2022-12-07T07:08:00;26.20;;;16.20;;
5549;SDS011;2798;42.716;23.256;2022-12-07T07:10:26;26.60;;;15.50;;
5549;SDS011;2798;42.716;23.256;2022-12-07T07:12:52;24.80;;;15.00;;
5549;SDS011;2798;42.716;23.256;2022-12-07T07:15:17;25.50;;;14.70;;
5549;SDS011;2798;42.716;23.256;2022-12-07T07:17:43;23.60;;;14.47;;
5549;SDS011;2798;42.716;23.256;2022-12-07T07:20:08;22.67;;;14.93;;
5549;SDS011;2798;42.716;23.256;2022-12-07T07:22:34;23.30;;;14.53;;
5549;SDS011;2798;42.716;23.256;2022-12-07T07:25:15;27.00;;;14.47;;
5549;SDS011;2798;42.716;23.256;2022-12-07T07:27:41;25.47;;;13.70;;
5549;SDS011;2798;42.716;23.256;2022-12-07T07:30:07;24.53;;;14.60;;
5549;SDS011;2798;42.716;23.256;2022-12-07T07:32:33;23.60;;;14.63;;
5549;SDS011;2798;42.716;23.256;2022-12-07T07:34:59;23.33;;;14.07;;
5549;SDS011;2798;42.716;23.256;2022-12-07T07:37:24;26.37;;;15.00;;
5549;SDS011;2798;42.716;23.256;2022-12-07T07:39:50;25.83;;;15.20;;
5549;SDS011;2798;42.716;23.256;2022-12-07T07:42:15;23.07;;;13.60;;
5549;SDS011;2798;42.716;23.256;2022-12-07T07:44:41;26.60;;;14.00;;
5549;SDS011;2798;42.716;23.256;2022-12-07T07:47:06;22.53;;;13.70;;
5549;SDS011;2798;42.716;23.256;2022-12-07T07:49:32;21.03;;;13.50;;
5549;SDS011;2798;42.716;23.256;2022-12-07T07:51:57;23.63;;;14.20;;
5549;SDS011;2798;42.716;23.256;2022-12-07T07:54:22;24.30;;;13.87;;
5549;SDS011;2798;42.716;23.256;2022-12-07T07:56:48;24.80;;;14.17;;
5549;SDS011;2798;42.716;23.256;2022-12-07T07:59:14;19.20;;;12.60;;
5549;SDS011;2798;42.716;23.256;2022-12-07T08:01:39;26.10;;;15.07;;
5549;SDS011;2798;42.716;23.256;2022-12-07T08:04:05;27.83;;;14.97;;
5549;SDS011;2798;42.716;23.256;2022-12-07T08:06:30;31.87;;;15.33;;
5549;SDS011;2798;42.716;23.256;2022-12-07T08:08:55;22.43;;;14.20;;
5549;SDS011;2798;42.716;23.256;2022-12-07T08:11:23;24.07;;;12.50;;
5549;SDS011;2798;42.716;23.256;2022-12-07T08:13:49;20.23;;;13.03;;
5549;SDS011;2798;42.716;23.256;2022-12-07T08:16:14;21.30;;;13.43;;
5549;SDS011;2798;42.716;23.256;2022-12-07T08:18:40;26.03;;;13.57;;
5549;SDS011;2798;42.716;23.256;2022-12-07T08:21:06;22.40;;;14.13;;
5549;SDS011;2798;42.716;23.256;2022-12-07T08:23:34;20.53;;;12.87;;
5549;SDS011;2798;42.716;23.256;2022-12-07T08:26:03;20.40;;;14.07;;
5549;SDS011;2798;42.716;23.256;2022-12-07T08:28:30;20.20;;;12.77;;
5549;SDS011;2798;42.716;23.256;2022-12-07T08:31:00;22.87;;;13.77;;
5549;SDS011;2798;42.716;23.256;2022-12-07T08:33:29;21.00;;;12.33;;
5549;SDS011;2798;42.716;23.256;2022-12-07T08:35:59;25.13;;;14.27;;
5549;SDS011;2798;42.716;23.256;2022-12-07T08:38:29;19.70;;;13.13;;
5549;SDS011;2798;42.716;23.256;2022-12-07T08:40:54;24.50;;;13.30;;
5549;SDS011;2798;42.716;23.256;2022-12-07T08:43:23;19.30;;;12.47;;
5549;SDS011;2798;42.716;23.256;2022-12-07T08:45:51;23.53;;;14.20;;
5549;SDS011;2798;42.716;23.256;2022-12-07T08:49:02;24.83;;;14.67;;
5549;SDS011;2798;42.716;23.256;2022-12-07T08:51:35;23.57;;;13.90;;
5549;SDS011;2798;42.716;23.256;2022-12-07T08:54:01;26.53;;;14.40;;
5549;SDS011;2798;42.716;23.256;2022-12-07T08:56:31;25.97;;;15.00;;
5549;SDS011;2798;42.716;23.256;2022-12-07T08:58:57;23.70;;;14.60;;
5549;SDS011;2798;42.716;23.256;2022-12-07T09:01:32;22.90;;;14.33;;
5549;SDS011;2798;42.716;23.256;2022-12-07T09:03:58;23.97;;;14.30;;
5549;SDS011;2798;42.716;23.256;2022-12-07T09:06:23;29.23;;;15.40;;
5549;SDS011;2798;42.716;23.256;2022-12-07T09:08:50;23.87;;;13.93;;
5549;SDS011;2798;42.716;23.256;2022-12-07T09:11:19;22.40;;;13.43;;
5549;SDS011;2798;42.716;23.256;2022-12-07T09:13:44;24.37;;;14.60;;
5549;SDS011;2798;42.716;23.256;2022-12-07T09:16:15;25.87;;;15.23;;
5549;SDS011;2798;42.716;23.256;2022-12-07T09:18:43;24.87;;;14.70;;
5549;SDS011;2798;42.716;23.256;2022-12-07T09:21:21;23.53;;;15.40;;
5549;SDS011;2798;42.716;23.256;2022-12-07T09:23:46;23.13;;;14.33;;
5549;SDS011;2798;42.716;23.256;2022-12-07T09:26:12;22.73;;;15.07;;
5549;SDS011;2798;42.716;23.256;2022-12-07T09:28:37;24.90;;;14.73;;
5549;SDS011;2798;42.716;23.256;2022-12-07T09:31:04;24.00;;;15.60;;
5549;SDS011;2798;42.716;23.256;2022-12-07T09:33:30;26.80;;;16.50;;
5549;SDS011;2798;42.716;23.256;2022-12-07T09:35:56;24.13;;;15.57;;
5549;SDS011;2798;42.716;23.256;2022-12-07T09:38:21;26.03;;;16.00;;
5549;SDS011;2798;42.716;23.256;2022-12-07T09:40:47;24.17;;;15.90;;
5549;SDS011;2798;42.716;23.256;2022-12-07T09:43:17;30.67;;;16.60;;
5549;SDS011;2798;42.716;23.256;2022-12-07T09:45:45;27.43;;;16.67;;
5549;SDS011;2798;42.716;23.256;2022-12-07T09:51:18;27.23;;;17.60;;
5549;SDS011;2798;42.716;23.256;2022-12-07T09:53:45;24.70;;;15.67;;
5549;SDS011;2798;42.716;23.256;2022-12-07T09:56:15;32.80;;;20.00;;
5549;SDS011;2798;42.716;23.256;2022-12-07T09:58:43;30.23;;;17.30;;
5549;SDS011;2798;42.716;23.256;2022-12-07T10:01:11;26.67;;;16.33;;
5549;SDS011;2798;42.716;23.256;2022-12-07T10:03:39;28.93;;;18.23;;
5549;SDS011;2798;42.716;23.256;2022-12-07T10:06:10;28.47;;;17.67;;
5549;SDS011;2798;42.716;23.256;2022-12-07T10:08:37;25.80;;;17.47;;
5549;SDS011;2798;42.716;23.256;2022-12-07T10:11:03;32.37;;;18.77;;
5549;SDS011;2798;42.716;23.256;2022-12-07T10:13:39;30.90;;;17.80;;
5549;SDS011;2798;42.716;23.256;2022-12-07T10:18:48;31.20;;;18.10;;
5549;SDS011;2798;42.716;23.256;2022-12-07T10:21:15;23.53;;;16.80;;
5549;SDS011;2798;42.716;23.256;2022-12-07T10:23:58;32.53;;;16.40;;
5549;SDS011;2798;42.716;23.256;2022-12-07T10:28:58;28.53;;;18.03;;
5549;SDS011;2798;42.716;23.256;2022-12-07T10:31:25;33.80;;;17.13;;
5549;SDS011;2798;42.716;23.256;2022-12-07T10:41:58;27.70;;;17.60;;
5549;SDS011;2798;42.716;23.256;2022-12-07T10:44:27;26.10;;;16.67;;
5549;SDS011;2798;42.716;23.256;2022-12-07T10:52:54;25.50;;;16.03;;
5549;SDS011;2798;42.716;23.256;2022-12-07T10:55:46;24.37;;;16.50;;
5549;SDS011;2798;42.716;23.256;2022-12-07T11:06:57;26.60;;;16.83;;
5549;SDS011;2798;42.716;23.256;2022-12-07T11:17:23;24.20;;;16.43;;
5549;SDS011;2798;42.716;23.256;2022-12-07T11:20:15;23.70;;;15.30;;
5549;SDS011;2798;42.716;23.256;2022-12-07T11:25:23;28.20;;;15.63;;
5549;SDS011;2798;42.716;23.256;2022-12-07T11:33:01;26.57;;;16.37;;
5549;SDS011;2798;42.716;23.256;2022-12-07T11:38:15;29.17;;;15.87;;
5549;SDS011;2798;42.716;23.256;2022-12-07T11:40:43;28.33;;;16.07;;
5549;SDS011;2798;42.716;23.256;2022-12-07T11:46:15;29.13;;;17.30;;
5549;SDS011;2798;42.716;23.256;2022-12-07T11:48:46;22.60;;;14.83;;
5549;SDS011;2798;42.716;23.256;2022-12-07T11:51:32;26.70;;;16.60;;
5549;SDS011;2798;42.716;23.256;2022-12-07T11:54:03;26.90;;;15.03;;
5549;SDS011;2798;42.716;23.256;2022-12-07T11:56:37;25.80;;;15.60;;
5549;SDS011;2798;42.716;23.256;2022-12-07T12:02:09;21.67;;;15.50;;
5549;SDS011;2798;42.716;23.256;2022-12-07T12:07:15;24.53;;;14.73;;
5549;SDS011;2798;42.716;23.256;2022-12-07T12:21:09;24.30;;;15.00;;
5549;SDS011;2798;42.716;23.256;2022-12-07T12:23:43;24.70;;;15.57;;
5549;SDS011;2798;42.716;23.256;2022-12-07T12:26:18;23.93;;;14.17;;
5549;SDS011;2798;42.716;23.256;2022-12-07T12:46:45;17.77;;;12.60;;
5549;SDS011;2798;42.716;23.256;2022-12-07T12:51:46;28.93;;;14.57;;
5549;SDS011;2798;42.716;23.256;2022-12-07T12:54:23;18.20;;;12.03;;
5549;SDS011;2798;42.716;23.256;2022-12-07T13:02:34;18.03;;;12.77;;
5549;SDS011;2798;42.716;23.256;2022-12-07T13:15:49;21.13;;;12.60;;
5549;SDS011;2798;42.716;23.256;2022-12-07T13:18:35;20.57;;;12.63;;
5549;SDS011;2798;42.716;23.256;2022-12-07T13:23:37;20.53;;;12.80;;
5549;SDS011;2798;42.716;23.256;2022-12-07T13:26:12;19.13;;;11.47;;
5549;SDS011;2798;42.716;23.256;2022-12-07T13:33:55;19.90;;;13.10;;
5549;SDS011;2798;42.716;23.256;2022-12-07T13:36:24;15.30;;;10.73;;
5549;SDS011;2798;42.716;23.256;2022-12-07T13:41:41;19.17;;;11.33;;
5549;SDS011;2798;42.716;23.256;2022-12-07T13:44:15;18.00;;;10.70;;
5549;SDS011;2798;42.716;23.256;2022-12-07T13:49:39;17.37;;;11.77;;
5549;SDS011;2798;42.716;23.256;2022-12-07T13:54:57;15.80;;;11.03;;
5549;SDS011;2798;42.716;23.256;2022-12-07T13:57:38;20.60;;;11.50;;
5549;SDS011;2798;42.716;23.256;2022-12-07T14:00:04;19.80;;;11.37;;
5549;SDS011;2798;42.716;23.256;2022-12-07T14:02:53;20.27;;;12.63;;
5549;SDS011;2798;42.716;23.256;2022-12-07T14:05:25;16.27;;;10.83;;
5549;SDS011;2798;42.716;23.256;2022-12-07T14:07:53;17.57;;;11.73;;
5549;SDS011;2798;42.716;23.256;2022-12-07T14:11:02;15.07;;;10.20;;
5549;SDS011;2798;42.716;23.256;2022-12-07T14:13:35;19.07;;;10.90;;
5549;SDS011;2798;42.716;23.256;2022-12-07T14:16:00;19.23;;;11.07;;
5549;SDS011;2798;42.716;23.256;2022-12-07T14:18:46;19.57;;;10.43;;
5549;SDS011;2798;42.716;23.256;2022-12-07T14:23:37;16.80;;;10.60;;
5549;SDS011;2798;42.716;23.256;2022-12-07T14:26:10;18.43;;;10.70;;
5549;SDS011;2798;42.716;23.256;2022-12-07T14:28:38;16.77;;;10.40;;
5549;SDS011;2798;42.716;23.256;2022-12-07T14:31:08;15.23;;;10.50;;
5549;SDS011;2798;42.716;23.256;2022-12-07T14:33:37;22.07;;;11.00;;
5549;SDS011;2798;42.716;23.256;2022-12-07T14:36:03;18.73;;;10.77;;
5549;SDS011;2798;42.716;23.256;2022-12-07T14:38:28;16.23;;;11.03;;
5549;SDS011;2798;42.716;23.256;2022-12-07T14:40:54;19.67;;;11.10;;
5549;SDS011;2798;42.716;23.256;2022-12-07T14:43:40;17.60;;;11.37;;
5549;SDS011;2798;42.716;23.256;2022-12-07T14:46:06;18.67;;;10.57;;
5549;SDS011;2798;42.716;23.256;2022-12-07T14:48:31;16.77;;;10.13;;
5549;SDS011;2798;42.716;23.256;2022-12-07T14:50:57;16.70;;;11.00;;
5549;SDS011;2798;42.716;23.256;2022-12-07T14:53:24;18.30;;;11.37;;
5549;SDS011;2798;42.716;23.256;2022-12-07T14:55:54;16.00;;;10.30;;
5549;SDS011;2798;42.716;23.256;2022-12-07T14:58:19;17.60;;;11.30;;
5549;SDS011;2798;42.716;23.256;2022-12-07T15:00:45;18.47;;;11.80;;
5549;SDS011;2798;42.716;23.256;2022-12-07T15:03:12;15.80;;;10.23;;
5549;SDS011;2798;42.716;23.256;2022-12-07T15:05:39;17.20;;;11.30;;
5549;SDS011;2798;42.716;23.256;2022-12-07T15:08:05;17.30;;;12.17;;
5549;SDS011;2798;42.716;23.256;2022-12-07T15:10:33;22.60;;;12.87;;
5549;SDS011;2798;42.716;23.256;2022-12-07T15:12:59;17.20;;;11.47;;
5549;SDS011;2798;42.716;23.256;2022-12-07T15:15:45;17.57;;;11.30;;
5549;SDS011;2798;42.716;23.256;2022-12-07T15:18:12;18.90;;;11.40;;
5549;SDS011;2798;42.716;23.256;2022-12-07T15:20:37;21.30;;;12.70;;
5549;SDS011;2798;42.716;23.256;2022-12-07T15:23:03;17.70;;;11.70;;
5549;SDS011;2798;42.716;23.256;2022-12-07T15:25:28;21.87;;;13.97;;
5549;SDS011;2798;42.716;23.256;2022-12-07T15:27:54;22.60;;;14.33;;
5549;SDS011;2798;42.716;23.256;2022-12-07T15:30:19;22.60;;;12.77;;
5549;SDS011;2798;42.716;23.256;2022-12-07T15:32:48;23.37;;;14.63;;
5549;SDS011;2798;42.716;23.256;2022-12-07T15:35:14;25.10;;;13.00;;
5549;SDS011;2798;42.716;23.256;2022-12-07T15:37:40;21.40;;;14.00;;
5549;SDS011;2798;42.716;23.256;2022-12-07T15:40:05;20.70;;;13.27;;
5549;SDS011;2798;42.716;23.256;2022-12-07T15:42:31;23.93;;;13.60;;
5549;SDS011;2798;42.716;23.256;2022-12-07T15:44:57;20.80;;;13.23;;
5549;SDS011;2798;42.716;23.256;2022-12-07T15:47:29;20.13;;;12.53;;
5549;SDS011;2798;42.716;23.256;2022-12-07T15:49:59;19.73;;;13.87;;
5549;SDS011;2798;42.716;23.256;2022-12-07T15:52:25;26.70;;;13.60;;
5549;SDS011;2798;42.716;23.256;2022-12-07T15:54:51;21.23;;;13.70;;
5549;SDS011;2798;42.716;23.256;2022-12-07T15:57:16;22.50;;;13.40;;
5549;SDS011;2798;42.716;23.256;2022-12-07T15:59:41;25.10;;;13.50;;
5549;SDS011;2798;42.716;23.256;2022-12-07T16:02:08;21.90;;;13.07;;
5549;SDS011;2798;42.716;23.256;2022-12-07T16:04:35;23.97;;;13.17;;
5549;SDS011;2798;42.716;23.256;2022-12-07T16:07:01;25.13;;;12.50;;
5549;SDS011;2798;42.716;23.256;2022-12-07T16:09:26;26.30;;;12.13;;
5549;SDS011;2798;42.716;23.256;2022-12-07T16:11:53;25.37;;;13.63;;
5549;SDS011;2798;42.716;23.256;2022-12-07T16:14:19;21.23;;;13.00;;
5549;SDS011;2798;42.716;23.256;2022-12-07T16:16:46;23.53;;;13.23;;
5549;SDS011;2798;42.716;23.256;2022-12-07T16:19:12;25.60;;;14.10;;
5549;SDS011;2798;42.716;23.256;2022-12-07T16:21:37;23.33;;;14.97;;
5549;SDS011;2798;42.716;23.256;2022-12-07T16:24:03;26.53;;;15.30;;
5549;SDS011;2798;42.716;23.256;2022-12-07T16:26:30;30.43;;;15.57;;
5549;SDS011;2798;42.716;23.256;2022-12-07T16:28:56;32.80;;;15.10;;
5549;SDS011;2798;42.716;23.256;2022-12-07T16:31:23;30.03;;;15.63;;
5549;SDS011;2798;42.716;23.256;2022-12-07T16:33:50;24.80;;;15.63;;
5549;SDS011;2798;42.716;23.256;2022-12-07T16:36:18;23.77;;;15.07;;
5549;SDS011;2798;42.716;23.256;2022-12-07T16:38:46;25.40;;;15.60;;
5549;SDS011;2798;42.716;23.256;2022-12-07T16:41:11;32.00;;;15.53;;
5549;SDS011;2798;42.716;23.256;2022-12-07T16:43:37;32.10;;;18.13;;
5549;SDS011;2798;42.716;23.256;2022-12-07T16:46:03;38.20;;;19.47;;
5549;SDS011;2798;42.716;23.256;2022-12-07T16:48:28;37.97;;;22.80;;
5549;SDS011;2798;42.716;23.256;2022-12-07T16:50:54;51.00;;;24.10;;
5549;SDS011;2798;42.716;23.256;2022-12-07T16:53:20;55.10;;;26.10;;
5549;SDS011;2798;42.716;23.256;2022-12-07T16:55:47;55.50;;;25.30;;
5549;SDS011;2798;42.716;23.256;2022-12-07T16:58:13;38.53;;;25.07;;
5549;SDS011;2798;42.716;23.256;2022-12-07T17:00:39;55.00;;;27.10;;
5549;SDS011;2798;42.716;23.256;2022-12-07T17:03:06;44.10;;;26.07;;
5549;SDS011;2798;42.716;23.256;2022-12-07T17:05:32;55.40;;;29.67;;
5549;SDS011;2798;42.716;23.256;2022-12-07T17:07:57;48.57;;;26.10;;
5549;SDS011;2798;42.716;23.256;2022-12-07T17:10:23;50.17;;;26.70;;
5549;SDS011;2798;42.716;23.256;2022-12-07T17:12:50;55.83;;;27.57;;
5549;SDS011;2798;42.716;23.256;2022-12-07T17:15:16;62.00;;;27.97;;
5549;SDS011;2798;42.716;23.256;2022-12-07T17:17:45;62.13;;;29.10;;
5549;SDS011;2798;42.716;23.256;2022-12-07T17:20:15;53.80;;;25.70;;